A- A+ FrançaisEnglishEspañol中国

最近的 LETO Madrid-Torrejon LFGA Colmar-Houssen LFGY St-Die RemomeixLFBG Cognac-Chateau-Bernard LEAP Ampuriabrava Gerona HSSJ Juba

飞行员的航空天气,使用METAR(气象机场报告)进行的飞行准备和TAF(终端机场预报:针对以下情况的短期天气预报)航空)。 以及其他资源,例如VAC(目视进近图)和NOTAM(通知飞行员)以进行预试飞行.

METAR, TAF, VAC, NOTAM Montgomery Co机场 (美国) / OACI KGAI/ IATA GAI

它位于附近 Gaithersburg, Montgomery Village 在 2.7 km, Redland 在 3.2 km, Gaithersburg 在 4.1 km, Cashell Estates 在 4.2 km, Derwood 在 5.7 km, Olney 在 8.7 km, Germantown 在 9.1 km, Rockville 在 9.4 km, Rossmoor 在 11 km, Leisure World 在 11 km,

机场的高度为 Montgomery Co机场的

164 m = 538 ft

附近的机场Montgomery Co机场的

跑道 Montgomery Co机场的

目前的天气 Montgomery Co机场的 - KGAI

fortes pluies
28°C

Vent 7 km/h

可提供5天天气预报 Montgomery Village 在 2.7 km, Redland 在 3.2 km, Gaithersburg 在 4.1 km, Cashell Estates 在 4.2 km, Derwood 在 5.7 km, Olney 在 8.7 km, Germantown 在 9.1 km, Rockville 在 9.4 km, Rossmoor 在 11 km, Leisure World 在 11 km,

METAR Montgomery Co机场的 - KGAI

KGAI 131656Z AUTO 27004KT 10SM SCT043 28/18 A2990 RMK AO2 SLP132 T02780183

Montgomery Co机场METAR解码 (美国)

KGAI机场发行的METAR日期2020年07月13日至16:56 GMT. 这是一个自动生成的METAR, 警告:此METAR已过期, 已于 29 天 20 小时 1 分钟.

可见度为16.1 km = 10 sm.

温度为28°C = 82 °F 露点为18°C = 64 °F 。 这相当于55%的相对湿度。.

QNH是1013 hPa = 29.91 inHg

的风4 kt = 7 km/h, 风向为270°.

云:距离4300 ft = 1310 m.

备注 AO2 SLP132 T02780183

TAF Montgomery Co机场的 - KGAI

没有TAF

Montgomery Co机场的NOTAM

提供的NOTAM不能保证其时事性。 在将其用于飞行准备或在飞行期间使用之前,飞行员是唯一负责验证其有效性的人员。

没有通知

数据源